AirNav   Everest Fuels
 
 362 users online  

FA90 Port Canaveral Heliport
Port Canaveral, Florida, USA

GOING TO PORT CANAVERAL?


FAA INFORMATION EFFECTIVE 21 MAY 2020

Location

FAA Identifier: FA90
Lat/Long: 28-24-18.9200N 080-37-07.2100W
28-24.315333N 080-37.120167W
28.4052556,-80.6186694
(estimated)
Elevation: 10 ft. / 3 m (estimated)
From city: 1 mile N of PORT CANAVERAL, FL
Time zone: UTC -4 (UTC -5 during Standard Time)
Zip code: 32920

Heliport Operations

Heliport use: Private use. Permission required prior to landing
Activation date: 12/2016
Control tower: no
ARTCC: JACKSONVILLE CENTER
FSS: SAINT PETERSBURG FLIGHT SERVICE STATION
Attendance: 
Segmented circle: no

Heliport Communications

WX AWOS-3 at COI (5 nm SW): 119.025 (321-986-8864)
WX AWOS-3PT at TIX (12 nm NW): 120.625 (321-567-6090)
WX AWOS-3 at X21 (17 nm NW): 119.725 (321-385-0384)
WX ASOS at MLB (18 nm S): PHONE 321-951-7575

Nearby radio navigation aids

VOR radial/distance  VOR name  Freq  Var
MLBr010/18.0MELBOURNE VOR/DME110.0007W
ORLr102/38.7ORLANDO VORTAC112.2000E

Heliport Services

Runway Information

Helipad H1

Dimensions: 40 x 40 ft. / 12 x 12 m
Surface: turf
Traffic pattern: leftleft

Heliport Ownership and Management from official FAA records

Ownership: Privately-owned
Owner: FLORIDA BIPLANES INC
475 MANOR DRIVE HANGAR 5
MERRITT ISLAND, FL 32952
Phone 321-392-4122
Manager: MARK GRAINGER
475 MANOR DRIVE HANGAR 5
MERRITT ISLAND, FL 32952
Phone 321-392-4122

Heliport Operational Statistics

Aircraft based on the field: 1
Helicopters: 1
    

Additional Remarks

FOR CD CTC ORLANDO APCH AT 407-852-7553

Instrument Procedures

There are no published instrument procedures at FA90.

Some nearby airports with instrument procedures:

KXMR - Cape Canaveral Air Force Station Skid Strip (5 nm NE)
KCOI - Merritt Island Airport (5 nm SW)
KCOF - Patrick Air Force Base (10 nm S)
KTIX - Space Coast Regional Airport (12 nm NW)
KTTS - NASA Shuttle Landing Facility (13 nm N)
X21 - Arthur Dunn Air Park (17 nm NW)
KMLB - Melbourne International Airport (18 nm S)
 
Loc | Ops | Rwys | IFR | FBO | Links
Com | Nav | Svcs | Stats | Notes
Aerial photo
No photo
 
Airport distance calculator
Flying to Port Canaveral Heliport? Find the distance to fly.

From to FA90

Sunrise and sunset
Times for 06-Jun-2020
 Local
(UTC-4)
 Zulu
(UTC)
Morning civil twilight05:5909:59
Sunrise06:2610:26
Sunset20:1700:17
Evening civil twilight20:4400:44

Current date and time
Zulu (UTC)  06-Jun-2020 09:05:07
Local (UTC-4)  06-Jun-2020 05:05:07
 
METAR
KXMR 
6nm NE 
060856Z AUTO 14005KT 10SM SCT170 SCT200 25/23 A2997 RMK AO2 SLP152 T02510231 57009 $
KTIX 
11nm NW 
060046Z VRB04KT 7SM -RA OVC095 24/23 A3009
KCOF 
11nm S 
060856Z AUTO 14005KT 10SM CLR 26/23 A2998 RMK AO2 SLP157 T02570228 57009
KTTS 
14nm N 
060856Z AUTO 07003KT 10SM OVC170 23/22 A2998 RMK AO2 VIS 1/4 RWY15/33 SLP156 T02310222 57009 $
KMLB 
18nm S 
060853Z AUTO 12004KT 10SM CLR 26/24 A2998 RMK AO2 SLP150 T02560239 58010
TAF
KTIX 
11nm NW 
060543Z 0606/0706 VRB03KT P6SM VCSH SCT020 BKN100 FM061300 12008KT P6SM VCSH BKN030 FM061700 12012KT P6SM VCTS BKN030CB FM070100 10005KT P6SM VCSH BKN035 AMD NOT SKED TIL 061100
KCOF 
11nm S 
060200Z 0602/0708 09009KT 9999 SCT020 BKN050 OVC120 QNH2999INS BECMG 0611/0612 VRB06KT 9999 VCSH SCT020 BKN055 OVC120 QNH3001INS TEMPO 0612/0616 18012G18KT 8000 SHRA BKN020 BECMG 0616/0617 13009KT 9999 VCTS BKN020CB OVC055 QNH2998INS TEMPO 0618/0622 18012G20KT 4800 TSRA BKN020CB BECMG 0700/0701 13009KT 9999 NSW SCT020 BKN120 QNH2994INS TX28/0617Z TN23/0610Z LAST NO AMDS AFT 0604 NEXT 0610
KMLB 
18nm S 
060543Z 0606/0706 12006KT P6SM VCSH SCT020 BKN100 FM061300 12008KT P6SM VCSH BKN030 FM061700 12012KT P6SM VCTS BKN030CB FM070100 10005KT P6SM VCSH BKN035
NOTAMs
Click for the latest NOTAMs
NOTAMs are issued by the DoD/FAA and will open in a separate window not controlled by AirNav.

 

 
 

Would you like to see your business listed on this page?

 If your business provides an interesting product or service to pilots, flight crews, aircraft, or users of the Port Canaveral Heliport, you should consider listing it here.  To start the listing process, click on the button below
 
Add a business
 

Other Pages about Port Canaveral Heliport

Update a link
 
Copyright © AirNav, LLC. All rights reserved. Privacy Policy  Contact